Time;durP1;ratioP1;P1;durP2;ratioP2;P2;SDS_P1;SDS_P2;PMS_P1;PMS_P2;Temp;Humidity;BMP_temperature;BMP_pressure;BME280_temperature;BME280_humidity;BME280_pressure;Samples;Min_cycle;Max_cycle;Signal;HPM_P1;HPM_P2
2023/05/25 00:00:28;;;;;;;18.55;10.65;;;9.50;99.90;;;;;;2124154;27;20482;-77
2023/05/25 00:01:29;;;;;;;20.35;10.88;;;9.40;99.90;;;;;;2121834;27;20553;-77
2023/05/25 00:02:32;;;;;;;19.20;10.95;;;9.40;99.90;;;;;;2129242;27;20054;-76
2023/05/25 00:03:32;;;;;;;16.08;10.80;;;9.40;99.90;;;;;;2112723;28;20038;-77
2023/05/25 00:04:33;;;;;;;17.88;10.50;;;9.40;99.90;;;;;;2120241;27;20688;-77
2023/05/25 00:05:34;;;;;;;18.33;11.07;;;9.40;99.90;;;;;;2120527;27;20516;-76
2023/05/25 00:06:40;;;;;;;18.00;10.63;;;9.30;99.90;;;;;;2121723;27;20039;-77
2023/05/25 00:07:40;;;;;;;20.17;10.82;;;9.30;99.90;;;;;;2113469;28;20531;-77
2023/05/25 00:08:41;;;;;;;18.50;11.15;;;9.40;99.90;;;;;;2124065;27;20035;-77
2023/05/25 00:09:45;;;;;;;18.35;10.95;;;9.30;99.90;;;;;;2121853;27;20733;-77
2023/05/25 00:10:45;;;;;;;19.90;11.27;;;9.30;99.90;;;;;;2123768;27;20035;-76
2023/05/25 00:11:46;;;;;;;19.23;11.20;;;9.30;99.90;;;;;;2130096;27;20034;-77
2023/05/25 00:12:47;;;;;;;17.60;10.65;;;9.30;99.90;;;;;;2122565;27;20062;-76
2023/05/25 00:13:47;;;;;;;17.50;10.77;;;9.30;99.90;;;;;;2113049;28;20020;-77
2023/05/25 00:14:48;;;;;;;20.15;11.25;;;9.30;99.90;;;;;;2120867;27;20110;-77
2023/05/25 00:15:49;;;;;;;18.63;11.50;;;9.30;99.90;;;;;;2121245;27;20035;-77
2023/05/25 00:16:50;;;;;;;19.75;11.15;;;9.30;99.90;;;;;;2123131;27;20016;-78
2023/05/25 00:17:53;;;;;;;17.83;10.65;;;9.30;99.90;;;;;;2131143;27;20061;-77
2023/05/25 00:18:56;;;;;;;17.92;11.10;;;9.30;99.90;;;;;;2114263;27;20024;-78
2023/05/25 00:20:01;;;;;;;18.15;10.63;;;9.30;99.90;;;;;;2122176;27;20080;-77
2023/05/25 00:21:04;;;;;;;21.58;11.75;;;9.30;99.90;;;;;;2119392;27;20031;-77
2023/05/25 00:22:05;;;;;;;19.95;11.13;;;9.30;99.90;;;;;;2127783;27;20041;-77
2023/05/25 00:23:06;;;;;;;21.05;11.02;;;9.30;99.90;;;;;;2130042;27;20410;-77
2023/05/25 00:24:07;;;;;;;17.70;11.30;;;9.20;99.90;;;;;;2121992;27;20023;-76
2023/05/25 00:25:08;;;;;;;17.20;10.77;;;9.20;99.90;;;;;;2130065;27;20068;-76
2023/05/25 00:26:08;;;;;;;19.33;11.18;;;9.20;99.90;;;;;;2112340;27;20027;-77
2023/05/25 00:27:09;;;;;;;18.15;11.05;;;9.20;99.90;;;;;;2118205;27;20101;-77
2023/05/25 00:28:10;;;;;;;17.13;10.75;;;9.20;99.90;;;;;;2112984;27;20027;-76
2023/05/25 00:29:11;;;;;;;21.13;11.30;;;9.20;99.90;;;;;;2104455;28;20059;-77
2023/05/25 00:30:13;;;;;;;17.83;11.40;;;9.20;99.90;;;;;;2112009;28;20015;-76
2023/05/25 00:31:13;;;;;;;14.85;10.45;;;9.20;99.90;;;;;;2104015;28;20016;-77
2023/05/25 00:32:14;;;;;;;17.48;11.00;;;9.20;99.90;;;;;;2102558;28;20106;-77
2023/05/25 00:33:15;;;;;;;17.23;11.00;;;9.20;99.90;;;;;;2096148;28;20036;-76
2023/05/25 00:34:16;;;;;;;17.50;11.23;;;9.20;99.90;;;;;;2103993;28;20046;-76
2023/05/25 00:35:16;;;;;;;18.40;11.23;;;9.10;99.90;;;;;;2108152;28;20142;-75
2023/05/25 00:36:17;;;;;;;19.20;11.10;;;9.10;99.90;;;;;;2103968;28;20115;-75
2023/05/25 00:37:17;;;;;;;18.48;11.30;;;9.10;99.90;;;;;;2128703;27;20034;-77
2023/05/25 00:38:18;;;;;;;19.27;11.00;;;9.10;99.90;;;;;;2120826;27;20103;-77
2023/05/25 00:39:20;;;;;;;17.83;11.02;;;9.10;99.90;;;;;;2112891;27;20727;-77
2023/05/25 00:40:21;;;;;;;18.05;10.88;;;9.10;99.90;;;;;;2125228;27;20023;-77
2023/05/25 00:41:22;;;;;;;18.13;11.05;;;9.10;99.90;;;;;;2121217;27;20039;-76
2023/05/25 00:42:23;;;;;;;16.45;11.10;;;9.00;99.90;;;;;;2129485;27;20584;-76
2023/05/25 00:43:23;;;;;;;16.90;10.68;;;9.00;99.90;;;;;;2122024;27;20048;-75
2023/05/25 00:44:24;;;;;;;16.35;11.07;;;9.10;99.90;;;;;;2120489;27;20080;-76
2023/05/25 00:45:25;;;;;;;21.73;11.23;;;9.10;99.90;;;;;;2109989;27;20483;-77
2023/05/25 00:46:26;;;;;;;16.40;10.90;;;9.10;99.90;;;;;;2104091;28;20217;-76
2023/05/25 00:47:27;;;;;;;18.95;10.85;;;9.00;99.90;;;;;;2110927;28;20486;-76
2023/05/25 00:48:28;;;;;;;17.17;10.60;;;9.00;99.90;;;;;;2095664;28;20063;-75
2023/05/25 00:49:32;;;;;;;17.00;10.60;;;9.00;99.90;;;;;;2078774;28;20022;-76
2023/05/25 00:50:41;;;;;;;20.73;11.13;;;9.10;99.90;;;;;;2107776;27;20073;-75
2023/05/25 00:51:45;;;;;;;18.50;11.25;;;9.00;99.90;;;;;;2103953;28;20036;-76
2023/05/25 00:52:48;;;;;;;16.17;10.52;;;9.00;99.90;;;;;;2104314;28;20044;-75
2023/05/25 00:53:49;;;;;;;16.10;10.18;;;9.00;99.90;;;;;;2123209;27;20027;-76
2023/05/25 00:54:52;;;;;;;18.23;10.98;;;9.00;99.90;;;;;;2119922;27;20390;-76
2023/05/25 00:56:04;;;;;;;16.58;10.90;;;9.00;99.90;;;;;;2102357;28;20043;-75
2023/05/25 00:57:06;;;;;;;18.02;10.88;;;9.00;99.90;;;;;;2105151;28;20328;-75
2023/05/25 00:58:08;;;;;;;17.52;10.93;;;9.00;99.90;;;;;;2120471;27;20022;-76
2023/05/25 00:59:14;;;;;;;17.35;10.57;;;8.90;99.90;;;;;;2112210;27;20040;-77
2023/05/25 01:00:15;;;;;;;20.17;10.93;;;8.90;99.90;;;;;;2111007;27;20027;-76
2023/05/25 01:01:18;;;;;;;18.60;10.98;;;8.90;99.90;;;;;;2095280;28;20120;-77
2023/05/25 01:02:19;;;;;;;19.33;11.25;;;8.90;99.90;;;;;;2108254;28;20376;-76
2023/05/25 01:03:26;;;;;;;21.05;11.27;;;8.90;99.90;;;;;;2118793;27;20027;-76
2023/05/25 01:04:28;;;;;;;19.75;11.15;;;8.90;99.90;;;;;;2112765;28;20371;-76
2023/05/25 01:05:33;;;;;;;17.77;10.77;;;8.90;99.90;;;;;;2122328;27;20109;-76
2023/05/25 01:06:37;;;;;;;17.33;11.00;;;8.90;99.90;;;;;;2104432;28;20050;-75
2023/05/25 01:07:40;;;;;;;18.02;11.00;;;8.90;99.90;;;;;;2112326;28;20046;-76
2023/05/25 01:08:46;;;;;;;17.98;10.30;;;8.90;99.90;;;;;;2112420;27;20034;-75
2023/05/25 01:09:48;;;;;;;20.02;11.13;;;8.90;99.90;;;;;;2112829;28;20040;-76
2023/05/25 01:10:51;;;;;;;16.85;10.98;;;8.90;99.90;;;;;;2104275;28;20028;-76
2023/05/25 01:11:52;;;;;;;16.50;10.35;;;8.80;99.90;;;;;;2103599;28;20028;-76
2023/05/25 01:12:55;;;;;;;18.63;10.57;;;8.90;99.90;;;;;;2103864;28;20043;-76
2023/05/25 01:13:56;;;;;;;17.17;11.25;;;8.80;99.90;;;;;;2114330;27;20289;-76
2023/05/25 01:15:00;;;;;;;17.02;10.60;;;8.80;99.90;;;;;;2111407;28;20088;-75
2023/05/25 01:16:01;;;;;;;17.58;10.85;;;8.80;99.90;;;;;;2095839;28;20055;-76
2023/05/25 01:17:02;;;;;;;19.67;10.65;;;8.80;99.90;;;;;;2111215;28;20380;-77
2023/05/25 01:18:03;;;;;;;21.35;10.93;;;8.80;99.90;;;;;;2104005;28;20143;-76
2023/05/25 01:19:04;;;;;;;17.50;10.55;;;8.80;99.90;;;;;;2095321;28;20074;-76
2023/05/25 01:20:07;;;;;;;17.88;10.80;;;8.80;99.90;;;;;;2112017;28;20119;-77
2023/05/25 01:21:19;;;;;;;16.67;10.60;;;8.80;99.90;;;;;;2102613;28;20544;-77
2023/05/25 01:22:27;;;;;;;18.95;11.50;;;8.80;99.90;;;;;;2103800;28;20493;-76
2023/05/25 01:23:34;;;;;;;18.85;11.52;;;8.80;99.90;;;;;;2119306;27;20210;-77
2023/05/25 01:24:43;;;;;;;16.63;10.80;;;8.80;99.90;;;;;;2112836;28;20039;-77
2023/05/25 01:25:50;;;;;;;22.17;11.55;;;8.70;99.90;;;;;;2105726;28;20020;-75
2023/05/25 01:27:14;;;;;;;19.90;10.98;;;8.70;99.90;;;;;;2099409;28;20036;-77
2023/05/25 01:28:21;;;;;;;20.73;11.23;;;8.70;99.90;;;;;;2102577;28;20035;-77
2023/05/25 01:29:25;;;;;;;17.73;11.25;;;8.70;99.90;;;;;;2096117;28;20020;-77
2023/05/25 01:30:27;;;;;;;17.63;10.88;;;8.70;99.90;;;;;;2108524;28;20114;-77
2023/05/25 01:31:28;;;;;;;17.30;11.00;;;8.70;99.90;;;;;;2111995;28;20023;-77
2023/05/25 01:32:31;;;;;;;16.98;10.82;;;8.70;99.90;;;;;;2108058;28;20398;-77
2023/05/25 01:33:32;;;;;;;16.65;11.05;;;8.70;99.90;;;;;;2108972;28;20032;-77
2023/05/25 01:34:33;;;;;;;17.90;11.20;;;8.70;99.90;;;;;;2119769;27;20433;-76
2023/05/25 01:35:35;;;;;;;17.15;11.30;;;8.70;99.90;;;;;;2113290;27;20316;-78
2023/05/25 01:36:36;;;;;;;17.65;10.70;;;8.70;99.90;;;;;;2112063;28;20034;-78
2023/05/25 01:37:48;;;;;;;19.63;11.38;;;8.70;99.90;;;;;;2103547;28;20491;-77
2023/05/25 01:38:49;;;;;;;19.00;11.25;;;8.60;99.90;;;;;;2113351;27;20036;-77
2023/05/25 01:39:50;;;;;;;19.20;11.57;;;8.60;99.90;;;;;;2128920;27;20371;-78
2023/05/25 01:40:50;;;;;;;17.38;11.30;;;8.60;99.90;;;;;;2114481;27;20027;-78
2023/05/25 01:41:51;;;;;;;19.30;10.98;;;8.60;99.90;;;;;;2106299;28;20027;-77
2023/05/25 01:42:51;;;;;;;18.23;10.93;;;8.60;99.90;;;;;;2103354;28;20127;-78
2023/05/25 01:43:52;;;;;;;19.58;11.55;;;8.60;99.90;;;;;;2102323;28;20485;-78
2023/05/25 01:44:53;;;;;;;18.83;11.32;;;8.60;99.90;;;;;;2095311;28;20108;-78
2023/05/25 01:46:01;;;;;;;17.83;11.32;;;8.60;99.90;;;;;;2118812;27;20118;-75
2023/05/25 01:47:03;;;;;;;19.05;11.68;;;8.60;99.90;;;;;;2127445;27;20389;-73
2023/05/25 01:48:49;;;;;;;18.38;11.00;;;8.60;99.90;;;;;;2120263;27;20031;-77
2023/05/25 01:49:56;;;;;;;18.17;11.35;;;8.60;99.90;;;;;;2110341;28;20055;-78
2023/05/25 01:51:25;;;;;;;16.98;11.60;;;8.60;99.90;;;;;;2121557;27;20039;-78
2023/05/25 01:52:40;;;;;;;20.93;11.20;;;8.60;99.90;;;;;;2103542;28;20043;-77
2023/05/25 01:53:50;;;;;;;18.20;11.23;;;8.50;99.90;;;;;;2109281;28;20288;-77
2023/05/25 01:54:56;;;;;;;18.45;11.48;;;8.50;99.90;;;;;;2103269;28;20028;-77
2023/05/25 01:56:00;;;;;;;18.65;10.93;;;8.60;99.90;;;;;;2095468;28;20040;-77
2023/05/25 01:57:08;;;;;;;19.85;11.10;;;8.50;99.90;;;;;;2108826;28;20169;-76
2023/05/25 01:58:09;;;;;;;19.20;11.40;;;8.60;99.90;;;;;;2095509;28;20391;-77
2023/05/25 01:59:12;;;;;;;19.52;11.82;;;8.50;99.90;;;;;;2110197;28;20636;-77
2023/05/25 02:00:14;;;;;;;17.13;11.02;;;8.50;99.90;;;;;;2110939;28;20032;-77
2023/05/25 02:01:17;;;;;;;17.48;11.32;;;8.50;99.90;;;;;;2112033;28;20035;-77
2023/05/25 02:02:19;;;;;;;17.95;11.70;;;8.50;99.90;;;;;;2095677;28;20028;-76
2023/05/25 02:03:20;;;;;;;19.13;11.43;;;8.50;99.90;;;;;;2110303;28;20536;-75
2023/05/25 02:04:23;;;;;;;16.20;11.25;;;8.50;99.90;;;;;;2111886;28;20406;-77
2023/05/25 02:05:23;;;;;;;19.50;11.85;;;8.50;99.90;;;;;;2117492;28;20031;-77
2023/05/25 02:06:25;;;;;;;19.20;11.38;;;8.40;99.90;;;;;;2115488;28;20039;-77
2023/05/25 02:07:25;;;;;;;18.90;11.45;;;8.50;99.90;;;;;;2103462;28;20028;-77
2023/05/25 02:08:26;;;;;;;18.92;11.32;;;8.40;99.90;;;;;;2114112;28;20405;-77
2023/05/25 02:09:26;;;;;;;20.75;12.38;;;8.50;99.90;;;;;;2128527;27;20485;-77
2023/05/25 02:10:27;;;;;;;17.27;11.15;;;8.50;99.90;;;;;;2119981;28;20035;-77
2023/05/25 02:11:27;;;;;;;17.70;11.35;;;8.40;99.90;;;;;;2109166;28;20031;-77
2023/05/25 02:12:28;;;;;;;18.27;11.38;;;8.50;99.90;;;;;;2111633;28;20028;-77
2023/05/25 02:13:29;;;;;;;19.27;11.35;;;8.50;99.90;;;;;;2107006;28;20040;-77
2023/05/25 02:14:29;;;;;;;19.15;11.45;;;8.40;99.90;;;;;;2111707;28;20027;-77
2023/05/25 02:15:32;;;;;;;17.35;11.07;;;8.40;99.90;;;;;;2119299;28;20031;-76
2023/05/25 02:16:32;;;;;;;19.85;11.15;;;8.40;99.90;;;;;;2099588;28;20020;-77
2023/05/25 02:17:35;;;;;;;19.90;11.95;;;8.40;99.90;;;;;;2094836;28;20029;-77
2023/05/25 02:18:36;;;;;;;18.95;11.32;;;8.40;99.90;;;;;;2119694;27;20027;-77
2023/05/25 02:19:37;;;;;;;17.15;10.90;;;8.40;99.90;;;;;;2103558;28;20028;-77
2023/05/25 02:20:37;;;;;;;18.90;11.52;;;8.40;99.90;;;;;;2103345;28;20035;-77
2023/05/25 02:21:38;;;;;;;15.98;10.95;;;8.40;99.90;;;;;;2105260;28;20032;-77
2023/05/25 02:22:38;;;;;;;23.60;11.80;;;8.40;99.90;;;;;;2110598;28;20028;-77
2023/05/25 02:23:41;;;;;;;19.23;11.40;;;8.40;99.90;;;;;;2103317;28;20027;-77
2023/05/25 02:24:42;;;;;;;19.38;11.40;;;8.40;99.90;;;;;;2110660;28;20291;-77
2023/05/25 02:25:42;;;;;;;20.23;11.18;;;8.40;99.90;;;;;;2110630;28;20072;-77
2023/05/25 02:26:43;;;;;;;19.45;11.60;;;8.40;99.90;;;;;;2096489;28;20040;-77
2023/05/25 02:27:44;;;;;;;18.98;11.75;;;8.40;99.90;;;;;;2103196;28;20031;-77
2023/05/25 02:28:44;;;;;;;17.00;10.40;;;8.40;99.90;;;;;;2111134;28;20055;-76
2023/05/25 02:29:45;;;;;;;17.33;11.13;;;8.40;99.90;;;;;;2103529;28;20705;-77
2023/05/25 02:30:45;;;;;;;18.38;11.50;;;8.30;99.90;;;;;;2119420;28;20031;-76
2023/05/25 02:31:46;;;;;;;22.52;12.27;;;8.30;99.90;;;;;;2109623;28;20020;-77
2023/05/25 02:32:47;;;;;;;18.30;11.32;;;8.30;99.90;;;;;;2095059;28;20493;-78
2023/05/25 02:33:47;;;;;;;20.02;11.48;;;8.30;99.90;;;;;;2106327;28;20016;-76
2023/05/25 02:34:48;;;;;;;21.00;11.73;;;8.30;99.90;;;;;;2111660;28;20035;-77
2023/05/25 02:35:49;;;;;;;17.55;11.13;;;8.30;99.90;;;;;;2105113;28;20035;-77
2023/05/25 02:36:50;;;;;;;18.20;11.23;;;8.30;99.90;;;;;;2112942;28;20031;-77
2023/05/25 02:37:50;;;;;;;21.50;12.18;;;8.30;99.90;;;;;;2111670;28;20675;-77
2023/05/25 02:38:51;;;;;;;21.83;11.95;;;8.30;99.90;;;;;;2105184;28;20032;-76
2023/05/25 02:39:52;;;;;;;21.55;12.27;;;8.30;99.90;;;;;;2094075;28;20163;-77
2023/05/25 02:40:54;;;;;;;18.38;11.20;;;8.30;99.90;;;;;;2102258;28;20554;-76
2023/05/25 02:41:55;;;;;;;20.75;11.48;;;8.30;99.90;;;;;;2101843;28;20023;-76
2023/05/25 02:42:55;;;;;;;21.77;11.45;;;8.30;99.90;;;;;;2119386;28;20085;-76
2023/05/25 02:43:58;;;;;;;18.33;11.63;;;8.30;99.90;;;;;;2114792;28;20107;-76
2023/05/25 02:45:00;;;;;;;17.30;11.55;;;8.30;99.90;;;;;;2111539;28;20047;-77
2023/05/25 02:46:01;;;;;;;20.33;12.02;;;8.30;99.90;;;;;;2103392;28;20024;-76
2023/05/25 02:47:02;;;;;;;20.73;12.30;;;8.30;99.90;;;;;;2095027;28;20805;-78
2023/05/25 02:48:02;;;;;;;19.83;11.90;;;8.30;99.90;;;;;;2105161;28;20491;-78
2023/05/25 02:49:05;;;;;;;19.33;12.18;;;8.30;99.90;;;;;;2106340;28;20031;-78
2023/05/25 02:50:06;;;;;;;17.50;11.50;;;8.30;99.90;;;;;;2113286;28;20706;-78
2023/05/25 02:51:14;;;;;;;23.30;12.10;;;8.30;99.90;;;;;;2119355;28;20015;-77
2023/05/25 02:52:14;;;;;;;19.52;12.15;;;8.20;99.90;;;;;;2118019;28;20075;-78
2023/05/25 02:53:15;;;;;;;20.45;11.98;;;8.20;99.90;;;;;;2112154;28;20024;-78
2023/05/25 02:54:16;;;;;;;18.40;11.85;;;8.20;99.90;;;;;;2111443;28;20661;-77
2023/05/25 02:55:17;;;;;;;19.10;11.80;;;8.20;99.90;;;;;;2111797;28;20031;-78
2023/05/25 02:56:18;;;;;;;20.10;12.07;;;8.20;99.90;;;;;;2096269;28;20036;-78
2023/05/25 02:57:19;;;;;;;20.00;12.00;;;8.20;99.90;;;;;;2096528;28;20052;-77
2023/05/25 02:58:19;;;;;;;22.10;12.52;;;8.20;99.90;;;;;;2110445;28;20055;-78
2023/05/25 02:59:33;;;;;;;18.77;12.10;;;8.20;99.90;;;;;;2101227;28;20602;-78
2023/05/25 03:00:35;;;;;;;20.00;11.98;;;8.20;99.90;;;;;;2112197;28;20039;-78
2023/05/25 03:01:35;;;;;;;20.48;14.13;;;8.20;99.90;;;;;;2108913;27;20028;-77
2023/05/25 03:02:36;;;;;;;28.85;17.60;;;8.20;99.90;;;;;;2111567;28;20085;-77
2023/05/25 03:03:36;;;;;;;28.70;16.10;;;8.20;99.90;;;;;;2096531;28;20032;-77
2023/05/25 03:04:38;;;;;;;23.92;13.52;;;8.20;99.90;;;;;;2096301;28;20070;-77
2023/05/25 03:05:38;;;;;;;23.50;13.10;;;8.10;99.90;;;;;;2116438;27;20051;-77
2023/05/25 03:06:39;;;;;;;17.55;11.55;;;8.10;99.90;;;;;;2106915;28;20309;-77
2023/05/25 03:07:50;;;;;;;19.52;12.02;;;8.10;99.90;;;;;;2105783;28;20414;-77
2023/05/25 03:08:51;;;;;;;19.40;11.93;;;8.10;99.90;;;;;;2115080;27;20042;-77
2023/05/25 03:09:52;;;;;;;19.42;11.98;;;8.10;99.90;;;;;;2120708;27;20031;-77
2023/05/25 03:10:53;;;;;;;18.25;11.80;;;8.10;99.90;;;;;;2105203;28;20507;-78
2023/05/25 03:11:53;;;;;;;20.00;12.52;;;8.10;99.90;;;;;;2103482;28;20067;-77
2023/05/25 03:12:55;;;;;;;19.38;12.40;;;8.10;99.90;;;;;;2113001;28;20046;-77
2023/05/25 03:13:55;;;;;;;19.52;12.20;;;8.10;99.90;;;;;;2115933;27;20119;-76
2023/05/25 03:14:56;;;;;;;18.02;12.38;;;8.10;99.90;;;;;;2104771;28;20794;-77
2023/05/25 03:15:57;;;;;;;18.13;12.63;;;8.10;99.90;;;;;;2120493;27;20031;-76
2023/05/25 03:16:57;;;;;;;18.40;12.48;;;8.00;99.90;;;;;;2103147;28;20499;-78
2023/05/25 03:18:00;;;;;;;19.38;12.05;;;8.00;99.90;;;;;;2088119;28;20547;-75
2023/05/25 03:19:04;;;;;;;20.27;12.18;;;8.00;99.90;;;;;;2107076;28;20028;-78
2023/05/25 03:20:09;;;;;;;19.25;12.15;;;8.00;99.90;;;;;;2112827;27;20024;-78
2023/05/25 03:21:12;;;;;;;16.92;11.43;;;8.10;99.90;;;;;;2113773;27;20031;-77
2023/05/25 03:22:13;;;;;;;20.67;12.20;;;8.00;99.90;;;;;;2110835;28;20024;-78
2023/05/25 03:23:13;;;;;;;18.10;11.50;;;8.10;99.90;;;;;;2104929;28;20039;-76
2023/05/25 03:24:14;;;;;;;20.13;11.32;;;8.10;99.90;;;;;;2104445;28;20028;-77
2023/05/25 03:25:15;;;;;;;19.35;11.63;;;8.10;99.90;;;;;;2120089;27;20015;-77
2023/05/25 03:26:16;;;;;;;22.15;12.25;;;8.10;99.90;;;;;;2094483;28;20028;-76
2023/05/25 03:27:18;;;;;;;17.67;11.80;;;8.10;99.90;;;;;;2093687;28;20025;-76
2023/05/25 03:28:19;;;;;;;22.45;11.73;;;8.10;99.90;;;;;;2103217;28;20024;-77
2023/05/25 03:29:20;;;;;;;19.55;11.65;;;8.10;99.90;;;;;;2104872;28;20023;-78
2023/05/25 03:30:22;;;;;;;18.73;11.98;;;8.10;99.90;;;;;;2104436;28;20115;-78
2023/05/25 03:31:22;;;;;;;17.38;11.80;;;8.10;99.90;;;;;;2118164;27;20023;-78
2023/05/25 03:32:23;;;;;;;19.95;12.15;;;8.10;99.90;;;;;;2121948;27;20042;-77
2023/05/25 03:33:24;;;;;;;21.30;12.48;;;8.10;99.90;;;;;;2120508;27;20131;-77
2023/05/25 03:34:25;;;;;;;16.65;11.85;;;8.10;99.90;;;;;;2111946;28;20037;-77
2023/05/25 03:35:26;;;;;;;17.10;11.52;;;8.20;99.90;;;;;;2119410;27;20030;-77
2023/05/25 03:36:27;;;;;;;17.83;11.27;;;8.20;99.90;;;;;;2116355;27;20038;-77
2023/05/25 03:37:27;;;;;;;18.90;11.20;;;8.20;99.90;;;;;;2112940;28;20023;-78
2023/05/25 03:38:28;;;;;;;17.98;11.40;;;8.20;99.90;;;;;;2127088;27;20079;-77
2023/05/25 03:39:29;;;;;;;16.75;11.32;;;8.20;99.90;;;;;;2120673;27;20050;-77
2023/05/25 03:40:29;;;;;;;17.58;11.10;;;8.20;99.90;;;;;;2113136;28;20122;-77
2023/05/25 03:41:30;;;;;;;16.75;10.85;;;8.20;99.90;;;;;;2112809;27;20032;-78
2023/05/25 03:42:31;;;;;;;16.85;11.40;;;8.20;99.90;;;;;;2121324;27;20049;-77
2023/05/25 03:43:31;;;;;;;19.83;11.60;;;8.20;99.90;;;;;;2105032;28;20082;-77
2023/05/25 03:44:32;;;;;;;18.70;11.15;;;8.20;99.90;;;;;;2111782;28;20115;-77
2023/05/25 03:45:33;;;;;;;14.68;10.43;;;8.30;99.90;;;;;;2113262;28;20149;-77
2023/05/25 03:46:33;;;;;;;16.63;11.30;;;8.30;99.90;;;;;;2100502;28;20646;-77
2023/05/25 03:47:35;;;;;;;15.82;10.60;;;8.30;99.90;;;;;;2104653;28;20103;-77
2023/05/25 03:48:36;;;;;;;16.30;10.88;;;8.30;99.90;;;;;;2119497;27;20073;-78
2023/05/25 03:49:38;;;;;;;19.23;11.70;;;8.30;99.90;;;;;;2120711;27;20019;-77
2023/05/25 03:50:39;;;;;;;19.85;11.25;;;8.30;99.90;;;;;;2113166;27;20100;-79
2023/05/25 03:51:42;;;;;;;17.45;10.98;;;8.30;99.90;;;;;;2110678;28;20591;-77
2023/05/25 03:52:42;;;;;;;21.13;10.75;;;8.30;99.90;;;;;;2104601;28;20020;-77
2023/05/25 03:53:43;;;;;;;17.70;11.40;;;8.40;99.90;;;;;;2115849;27;20073;-77
2023/05/25 03:54:43;;;;;;;17.80;11.00;;;8.40;99.90;;;;;;2111736;28;20070;-77
2023/05/25 03:55:44;;;;;;;17.92;10.95;;;8.40;99.90;;;;;;2112591;28;20031;-77
2023/05/25 03:56:46;;;;;;;17.85;10.68;;;8.40;99.90;;;;;;2106997;27;20011;-77
2023/05/25 03:57:46;;;;;;;16.20;10.80;;;8.50;99.90;;;;;;2112920;28;20499;-77
2023/05/25 03:58:47;;;;;;;17.98;11.13;;;8.50;99.90;;;;;;2111152;28;20019;-78
2023/05/25 03:59:48;;;;;;;17.60;10.70;;;8.50;99.90;;;;;;2104203;28;20151;-77
2023/05/25 04:00:49;;;;;;;18.13;11.40;;;8.60;99.90;;;;;;2119608;27;20027;-77
2023/05/25 04:01:50;;;;;;;18.75;11.13;;;8.50;99.90;;;;;;2110813;28;20054;-76
2023/05/25 04:02:50;;;;;;;18.35;10.65;;;8.60;99.90;;;;;;2112559;28;20032;-77
2023/05/25 04:03:54;;;;;;;16.92;10.75;;;8.60;99.90;;;;;;2113131;27;20572;-77
2023/05/25 04:04:55;;;;;;;17.40;10.75;;;8.70;99.90;;;;;;2120632;27;20068;-77
2023/05/25 04:05:57;;;;;;;17.65;10.80;;;8.70;99.90;;;;;;2112780;27;20027;-77
2023/05/25 04:06:58;;;;;;;17.27;10.85;;;8.70;99.90;;;;;;2112710;27;20502;-76
2023/05/25 04:07:59;;;;;;;16.48;10.88;;;8.80;99.90;;;;;;2111616;28;20119;-77
2023/05/25 04:09:00;;;;;;;15.57;10.82;;;8.90;99.90;;;;;;2096146;28;20025;-76
2023/05/25 04:10:00;;;;;;;15.23;9.95;;;9.10;99.90;;;;;;2104092;28;20125;-76
2023/05/25 04:11:01;;;;;;;16.20;10.40;;;9.40;99.90;;;;;;2120512;27;20497;-77
2023/05/25 04:12:02;;;;;;;15.40;9.93;;;9.70;99.90;;;;;;2120244;27;20027;-77
2023/05/25 04:13:03;;;;;;;17.40;10.00;;;10.00;99.90;;;;;;2120670;27;20023;-78
2023/05/25 04:14:04;;;;;;;15.05;9.77;;;10.40;99.90;;;;;;2112865;27;20032;-77
2023/05/25 04:15:08;;;;;;;15.32;9.35;;;10.60;99.90;;;;;;2112514;28;20063;-78
2023/05/25 04:16:18;;;;;;;14.50;9.30;;;11.00;99.90;;;;;;2095366;28;20032;-78
2023/05/25 04:17:23;;;;;;;14.85;9.52;;;11.30;99.90;;;;;;2112530;27;20280;-78
2023/05/25 04:18:24;;;;;;;15.00;9.23;;;11.50;99.90;;;;;;2104547;28;20115;-77
2023/05/25 04:19:24;;;;;;;15.75;9.32;;;11.80;99.90;;;;;;2111651;28;20024;-77
2023/05/25 04:20:25;;;;;;;18.42;11.02;;;12.00;99.90;;;;;;2110161;28;20032;-77
2023/05/25 04:21:25;;;;;;;16.13;10.13;;;12.10;99.90;;;;;;2116804;27;20039;-78
2023/05/25 04:22:26;;;;;;;14.43;9.35;;;12.30;99.90;;;;;;2103950;28;20472;-78
2023/05/25 04:23:27;;;;;;;13.02;8.77;;;12.50;99.90;;;;;;2101233;28;20130;-78
2023/05/25 04:24:28;;;;;;;13.45;8.68;;;12.70;99.90;;;;;;2103339;27;20391;-78
2023/05/25 04:25:31;;;;;;;13.32;8.93;;;12.80;99.90;;;;;;2104436;28;20039;-77
2023/05/25 04:26:32;;;;;;;16.95;9.02;;;13.00;99.90;;;;;;2111217;27;20023;-77
2023/05/25 04:27:35;;;;;;;11.77;8.57;;;13.20;99.90;;;;;;2119432;27;20649;-77
2023/05/25 04:28:41;;;;;;;12.55;8.15;;;13.40;99.90;;;;;;2119909;27;20072;-77
2023/05/25 04:29:49;;;;;;;13.65;8.75;;;13.50;99.90;;;;;;2097208;28;20028;-76
2023/05/25 04:31:17;;;;;;;11.88;7.97;;;13.70;99.90;;;;;;2104929;28;20141;-77
2023/05/25 04:32:28;;;;;;;11.43;8.43;;;13.80;99.90;;;;;;2111200;28;20058;-77
2023/05/25 04:33:48;;;;;;;14.30;8.88;;;13.90;99.90;;;;;;2106504;28;20404;-78
2023/05/25 04:34:59;;;;;;;13.85;8.25;;;14.10;99.90;;;;;;2105161;28;20032;-78
2023/05/25 04:36:07;;;;;;;14.38;8.32;;;14.20;99.90;;;;;;2096542;28;20039;-78
2023/05/25 04:37:10;;;;;;;13.95;8.55;;;14.30;99.90;;;;;;2110384;27;20031;-77
2023/05/25 04:38:16;;;;;;;20.08;14.32;;;14.40;99.90;;;;;;2103633;28;20069;-77
2023/05/25 04:39:17;;;;;;;14.10;10.75;;;14.40;99.90;;;;;;2096720;28;20043;-78
2023/05/25 04:40:23;;;;;;;13.50;9.30;;;14.40;99.90;;;;;;2111025;28;20024;-77
2023/05/25 04:41:24;;;;;;;14.93;8.65;;;14.50;99.90;;;;;;2116345;27;20029;-77
2023/05/25 04:42:27;;;;;;;13.80;8.38;;;14.60;99.90;;;;;;2112694;27;20157;-77
2023/05/25 04:43:29;;;;;;;15.00;8.40;;;14.80;99.90;;;;;;2120114;27;20030;-77
2023/05/25 04:44:30;;;;;;;12.93;8.10;;;14.90;99.90;;;;;;2103700;28;20356;-78
2023/05/25 04:45:32;;;;;;;12.73;8.10;;;15.00;99.90;;;;;;2113115;28;20031;-77
2023/05/25 04:46:36;;;;;;;10.93;7.65;;;15.00;99.90;;;;;;2103269;28;20536;-78
2023/05/25 04:47:39;;;;;;;13.13;7.72;;;15.10;99.90;;;;;;2121858;27;20390;-78
2023/05/25 04:48:41;;;;;;;11.40;8.00;;;15.30;99.90;;;;;;2115791;27;20097;-79
2023/05/25 04:49:42;;;;;;;13.35;8.20;;;15.40;99.90;;;;;;2123318;27;20088;-78
2023/05/25 04:50:43;;;;;;;12.65;8.38;;;15.40;99.90;;;;;;2115338;27;20050;-79
2023/05/25 04:51:44;;;;;;;13.35;8.30;;;15.50;99.90;;;;;;2106988;28;20025;-78
2023/05/25 04:52:44;;;;;;;14.38;8.90;;;15.50;99.90;;;;;;2103869;28;20032;-79
2023/05/25 04:53:45;;;;;;;15.68;8.90;;;15.50;99.90;;;;;;2114625;27;20089;-78
2023/05/25 04:54:46;;;;;;;13.45;8.57;;;15.50;99.90;;;;;;2107856;28;20107;-78
2023/05/25 04:55:48;;;;;;;13.77;9.13;;;15.60;99.90;;;;;;2112266;28;20105;-78
2023/05/25 04:56:49;;;;;;;15.77;8.70;;;15.60;99.90;;;;;;2112846;27;20023;-78
2023/05/25 04:57:52;;;;;;;18.50;9.55;;;15.60;99.90;;;;;;2129152;27;20030;-78
2023/05/25 04:58:52;;;;;;;18.35;9.68;;;15.70;99.90;;;;;;2121171;27;20027;-78
2023/05/25 04:59:53;;;;;;;18.90;9.60;;;15.60;99.90;;;;;;2111973;28;20055;-78
2023/05/25 05:00:55;;;;;;;18.77;9.25;;;15.60;99.90;;;;;;2119935;27;20118;-77
2023/05/25 05:01:56;;;;;;;16.63;9.60;;;15.60;99.90;;;;;;2104952;27;20392;-77
2023/05/25 05:03:00;;;;;;;20.73;9.80;;;15.70;99.90;;;;;;2119166;27;20627;-77
2023/05/25 05:04:00;;;;;;;16.40;9.68;;;15.80;99.90;;;;;;2103550;28;20028;-77
2023/05/25 05:05:01;;;;;;;16.58;9.68;;;15.80;99.90;;;;;;2111196;28;20132;-77
2023/05/25 05:06:02;;;;;;;14.15;8.93;;;15.80;99.90;;;;;;2104418;28;20427;-77
2023/05/25 05:07:04;;;;;;;17.77;9.18;;;16.00;99.90;;;;;;2102855;28;20116;-78
2023/05/25 05:08:05;;;;;;;19.17;8.70;;;16.00;99.90;;;;;;2100606;28;20529;-77
2023/05/25 05:09:06;;;;;;;13.52;8.60;;;16.20;99.90;;;;;;2104028;28;20138;-78
2023/05/25 05:10:07;;;;;;;16.80;8.98;;;16.40;99.90;;;;;;2111247;28;20023;-78
2023/05/25 05:11:10;;;;;;;13.90;9.02;;;16.40;99.90;;;;;;2103865;28;20347;-76
2023/05/25 05:12:11;;;;;;;15.23;8.68;;;16.40;99.90;;;;;;2117634;27;20102;-77
2023/05/25 05:13:15;;;;;;;16.65;8.73;;;16.40;99.90;;;;;;2120226;27;20031;-77
2023/05/25 05:14:16;;;;;;;15.40;9.05;;;16.40;99.90;;;;;;2112451;27;20462;-77
2023/05/25 05:15:19;;;;;;;13.85;8.13;;;16.40;99.50;;;;;;2120123;27;20034;-77
2023/05/25 05:16:22;;;;;;;13.68;8.38;;;16.50;99.30;;;;;;2111237;28;20039;-78
2023/05/25 05:17:23;;;;;;;17.33;8.93;;;16.60;98.70;;;;;;2118796;27;20121;-77
2023/05/25 05:18:25;;;;;;;13.45;8.18;;;16.70;97.90;;;;;;2111345;28;20073;-78
2023/05/25 05:19:25;;;;;;;16.50;8.63;;;16.70;97.20;;;;;;2103785;28;20379;-78
2023/05/25 05:20:26;;;;;;;14.95;8.60;;;16.70;96.40;;;;;;2109770;28;20110;-78